Time,TemperatureF,DewpointF,PressureIn,WindDirection,WindDirectionDegrees,WindSpeedMPH,WindSpeedGustMPH,Humidity,HourlyPrecipIn,Conditions,Clouds,dailyrainin,SoftwareType,DateUTC
2013-07-10 00:01:00,72.7,67.0,30.36,ENE,68,0.0,0.0,82,0.00,,,0.02,WUHU216TE923,2013-07-10 04:01:00,
2013-07-10 00:06:00,72.7,67.0,30.36,ENE,68,0.0,0.0,82,0.00,,,0.00,WUHU216TE923,2013-07-10 04:06:00,
2013-07-10 00:11:00,72.5,66.8,30.36,ENE,68,0.0,0.0,82,0.00,,,0.00,WUHU216TE923,2013-07-10 04:11:00,
2013-07-10 00:16:00,72.5,66.8,30.36,ENE,68,0.0,0.0,82,0.00,,,0.00,WUHU216TE923,2013-07-10 04:16:00,
2013-07-10 00:21:00,72.5,66.8,30.36,ENE,68,0.0,0.0,82,0.00,,,0.00,WUHU216TE923,2013-07-10 04:21:00,
2013-07-10 00:26:00,72.5,66.8,30.36,ENE,68,0.0,0.0,82,0.00,,,0.00,WUHU216TE923,2013-07-10 04:26:00,
2013-07-10 00:31:00,72.3,66.6,30.35,ENE,68,0.0,0.0,82,0.00,,,0.00,WUHU216TE923,2013-07-10 04:31:00,
2013-07-10 00:36:00,72.3,66.9,30.35,ENE,68,0.0,0.0,83,0.00,,,0.00,WUHU216TE923,2013-07-10 04:36:00,
2013-07-10 00:41:00,72.3,66.9,30.35,ENE,68,0.0,0.0,83,0.00,,,0.00,WUHU216TE923,2013-07-10 04:41:00,
2013-07-10 00:46:00,72.1,66.7,30.35,ENE,68,0.0,0.0,83,0.00,,,0.00,WUHU216TE923,2013-07-10 04:46:00,
2013-07-10 00:51:00,72.1,66.7,30.39,ENE,68,0.0,0.0,83,0.00,,,0.00,WUHU216TE923,2013-07-10 04:51:00,
2013-07-10 00:56:00,72.0,66.6,30.39,ENE,68,0.0,0.0,83,0.00,,,0.00,WUHU216TE923,2013-07-10 04:56:00,
2013-07-10 01:01:00,72.0,66.6,30.39,ENE,68,0.0,0.0,83,0.00,,,0.00,WUHU216TE923,2013-07-10 05:01:00,
2013-07-10 01:06:00,72.0,66.6,30.39,ENE,68,0.0,0.0,83,0.00,,,0.00,WUHU216TE923,2013-07-10 05:06:00,
2013-07-10 01:11:00,72.0,66.6,30.37,ENE,68,0.0,0.0,83,0.00,,,0.00,WUHU216TE923,2013-07-10 05:11:00,
2013-07-10 01:16:00,71.8,66.4,30.37,ENE,68,0.0,0.0,83,0.00,,,0.00,WUHU216TE923,2013-07-10 05:16:00,
2013-07-10 01:21:00,71.8,66.4,30.37,ENE,68,0.0,0.0,83,0.00,,,0.00,WUHU216TE923,2013-07-10 05:21:00,
2013-07-10 01:26:00,71.8,66.4,30.37,ENE,68,0.0,0.0,83,0.00,,,0.00,WUHU216TE923,2013-07-10 05:26:00,
2013-07-10 01:31:00,71.8,66.4,30.38,NNE,23,0.0,0.0,83,0.00,,,0.00,WUHU216TE923,2013-07-10 05:31:00,
2013-07-10 01:36:00,71.6,66.2,30.38,ESE,113,0.0,0.0,83,0.00,,,0.00,WUHU216TE923,2013-07-10 05:36:00,
2013-07-10 01:41:00,71.6,66.2,30.38,East,90,0.0,0.0,83,0.00,,,0.00,WUHU216TE923,2013-07-10 05:41:00,
2013-07-10 01:46:00,71.4,66.4,30.38,East,90,0.0,0.0,84,0.00,,,0.00,WUHU216TE923,2013-07-10 05:46:00,
2013-07-10 01:51:00,71.6,66.2,30.43,East,90,0.0,0.0,83,0.00,,,0.00,WUHU216TE923,2013-07-10 05:51:00,
2013-07-10 01:56:00,71.4,66.4,30.43,East,90,0.0,0.0,84,0.00,,,0.00,WUHU216TE923,2013-07-10 05:56:00,
2013-07-10 02:01:00,71.6,66.5,30.43,East,90,0.0,0.0,84,0.00,,,0.00,WUHU216TE923,2013-07-10 06:01:00,
2013-07-10 02:06:00,71.6,66.5,30.43,East,90,0.0,0.0,84,0.00,,,0.00,WUHU216TE923,2013-07-10 06:06:00,
2013-07-10 02:11:00,71.6,66.5,30.37,East,90,0.0,0.0,84,0.00,,,0.00,WUHU216TE923,2013-07-10 06:11:00,
2013-07-10 02:16:00,71.4,66.4,30.37,ENE,68,0.0,0.0,84,0.00,,,0.00,WUHU216TE923,2013-07-10 06:16:00,
2013-07-10 02:21:00,71.4,66.4,30.37,ENE,68,0.0,0.0,84,0.00,,,0.00,WUHU216TE923,2013-07-10 06:21:00,
2013-07-10 02:26:00,71.4,66.4,30.37,ENE,68,0.0,0.0,84,0.00,,,0.00,WUHU216TE923,2013-07-10 06:26:00,
2013-07-10 02:31:00,71.4,66.4,30.36,ENE,68,0.0,0.0,84,0.00,,,0.00,WUHU216TE923,2013-07-10 06:31:00,
2013-07-10 02:36:00,71.2,66.2,30.36,ENE,68,0.0,0.0,84,0.00,,,0.00,WUHU216TE923,2013-07-10 06:36:00,
2013-07-10 02:41:00,71.2,66.2,30.36,ENE,68,0.0,0.0,84,0.00,,,0.00,WUHU216TE923,2013-07-10 06:41:00,
2013-07-10 02:46:00,71.1,66.1,30.36,ENE,68,0.0,0.0,84,0.00,,,0.00,WUHU216TE923,2013-07-10 06:46:00,
2013-07-10 02:51:00,71.1,66.1,30.41,ENE,68,0.0,0.0,84,0.00,,,0.00,WUHU216TE923,2013-07-10 06:51:00,
2013-07-10 02:56:00,71.1,66.1,30.41,ENE,68,0.0,0.0,84,0.00,,,0.00,WUHU216TE923,2013-07-10 06:56:00,
2013-07-10 03:01:00,71.1,66.1,30.41,ENE,68,0.0,0.0,84,0.00,,,0.00,WUHU216TE923,2013-07-10 07:01:00,
2013-07-10 03:06:00,70.9,65.9,30.41,ENE,68,0.0,0.0,84,0.00,,,0.00,WUHU216TE923,2013-07-10 07:06:00,
2013-07-10 03:11:00,70.7,65.7,30.35,ENE,68,0.0,0.0,84,0.00,,,0.00,WUHU216TE923,2013-07-10 07:11:00,
2013-07-10 03:16:00,70.7,65.7,30.35,ENE,68,0.0,0.0,84,0.00,,,0.00,WUHU216TE923,2013-07-10 07:16:00,
2013-07-10 03:21:00,70.5,65.5,30.35,ENE,68,0.0,0.0,84,0.00,,,0.00,WUHU216TE923,2013-07-10 07:21:00,
2013-07-10 03:26:00,70.5,65.5,30.35,ENE,68,0.0,0.0,84,0.00,,,0.00,WUHU216TE923,2013-07-10 07:26:00,
2013-07-10 03:31:00,70.3,65.3,30.38,ENE,68,0.0,0.0,84,0.00,,,0.00,WUHU216TE923,2013-07-10 07:31:00,
2013-07-10 03:36:00,70.5,65.5,30.38,ENE,68,0.0,0.0,84,0.00,,,0.00,WUHU216TE923,2013-07-10 07:36:00,
2013-07-10 03:41:00,70.5,65.5,30.38,ENE,68,0.0,0.0,84,0.00,,,0.00,WUHU216TE923,2013-07-10 07:41:00,
2013-07-10 03:46:00,70.5,65.8,30.38,ENE,68,0.0,0.0,85,0.00,,,0.00,WUHU216TE923,2013-07-10 07:46:00,
2013-07-10 03:51:00,70.5,65.8,30.39,ENE,68,0.0,0.0,85,0.00,,,0.00,WUHU216TE923,2013-07-10 07:51:00,
2013-07-10 03:56:00,70.5,65.8,30.39,ENE,68,0.0,0.0,85,0.00,,,0.00,WUHU216TE923,2013-07-10 07:56:00,
2013-07-10 04:01:00,70.5,65.8,30.39,ENE,68,0.0,0.0,85,0.00,,,0.00,WUHU216TE923,2013-07-10 08:01:00,
2013-07-10 04:06:00,70.5,65.8,30.39,ENE,68,0.0,0.0,85,0.00,,,0.00,WUHU216TE923,2013-07-10 08:06:00,
2013-07-10 04:11:00,70.3,65.6,30.36,East,90,0.0,0.0,85,0.00,,,0.00,WUHU216TE923,2013-07-10 08:11:00,
2013-07-10 04:16:00,70.3,65.6,30.36,East,90,0.0,0.0,85,0.00,,,0.00,WUHU216TE923,2013-07-10 08:16:00,
2013-07-10 04:21:00,70.2,65.5,30.36,ESE,113,0.0,0.0,85,0.00,,,0.00,WUHU216TE923,2013-07-10 08:21:00,
2013-07-10 04:26:00,70.2,65.5,30.36,ESE,113,0.0,0.0,85,0.00,,,0.00,WUHU216TE923,2013-07-10 08:26:00,
2013-07-10 04:31:00,70.2,65.5,30.40,ESE,113,0.0,0.0,85,0.00,,,0.00,WUHU216TE923,2013-07-10 08:31:00,
2013-07-10 04:36:00,70.2,65.8,30.40,ESE,113,0.0,0.0,86,0.00,,,0.00,WUHU216TE923,2013-07-10 08:36:00,
2013-07-10 04:41:00,70.2,65.8,30.40,ESE,113,0.0,0.0,86,0.00,,,0.00,WUHU216TE923,2013-07-10 08:41:00,
2013-07-10 04:46:00,70.2,65.8,30.40,ESE,113,0.0,0.0,86,0.00,,,0.00,WUHU216TE923,2013-07-10 08:46:00,
2013-07-10 04:51:00,70.2,65.8,30.40,ESE,113,0.0,0.0,86,0.00,,,0.00,WUHU216TE923,2013-07-10 08:51:00,
2013-07-10 04:56:00,70.0,65.6,30.40,ESE,113,0.0,0.0,86,0.00,,,0.00,WUHU216TE923,2013-07-10 08:56:00,
2013-07-10 05:01:00,70.0,65.6,30.40,ESE,113,0.0,0.0,86,0.00,,,0.00,WUHU216TE923,2013-07-10 09:01:00,
2013-07-10 05:06:00,70.0,65.6,30.40,ESE,113,0.0,0.0,86,0.00,,,0.00,WUHU216TE923,2013-07-10 09:06:00,
2013-07-10 05:11:00,70.2,65.8,30.39,ESE,113,0.0,0.0,86,0.00,,,0.00,WUHU216TE923,2013-07-10 09:11:00,
2013-07-10 05:16:00,70.0,65.6,30.39,ESE,113,0.0,0.0,86,0.00,,,0.00,WUHU216TE923,2013-07-10 09:16:00,
2013-07-10 05:21:00,70.2,65.8,30.39,ESE,113,0.0,0.0,86,0.00,,,0.00,WUHU216TE923,2013-07-10 09:21:00,
2013-07-10 05:26:00,70.2,65.8,30.39,ESE,113,0.0,0.0,86,0.00,,,0.00,WUHU216TE923,2013-07-10 09:26:00,
2013-07-10 05:31:00,70.2,65.8,30.42,ESE,113,0.0,0.0,86,0.00,,,0.00,WUHU216TE923,2013-07-10 09:31:00,
2013-07-10 05:36:00,70.2,65.8,30.42,ESE,113,0.0,0.0,86,0.00,,,0.00,WUHU216TE923,2013-07-10 09:36:00,
2013-07-10 05:41:00,70.2,65.8,30.42,ESE,113,0.0,0.0,86,0.00,,,0.00,WUHU216TE923,2013-07-10 09:41:00,
2013-07-10 05:46:00,70.2,65.8,30.42,ESE,113,0.0,0.0,86,0.00,,,0.00,WUHU216TE923,2013-07-10 09:46:00,
2013-07-10 05:51:00,70.0,65.6,30.41,ESE,113,0.0,0.0,86,0.00,,,0.00,WUHU216TE923,2013-07-10 09:51:00,
2013-07-10 05:56:00,70.0,65.6,30.41,ESE,113,0.0,0.0,86,0.00,,,0.00,WUHU216TE923,2013-07-10 09:56:00,
2013-07-10 06:01:00,70.0,65.6,30.41,ESE,113,0.0,0.0,86,0.00,,,0.00,WUHU216TE923,2013-07-10 10:01:00,
2013-07-10 06:06:00,70.0,66.0,30.41,ESE,113,0.0,0.0,87,0.00,,,0.00,WUHU216TE923,2013-07-10 10:06:00,
2013-07-10 06:11:00,70.0,66.0,30.40,ESE,113,0.0,0.0,87,0.00,,,0.00,WUHU216TE923,2013-07-10 10:11:00,
2013-07-10 06:16:00,70.0,66.0,30.40,ESE,113,0.0,0.0,87,0.00,,,0.00,WUHU216TE923,2013-07-10 10:16:00,
2013-07-10 06:21:00,70.0,66.0,30.40,ESE,113,0.0,0.0,87,0.00,,,0.00,WUHU216TE923,2013-07-10 10:21:00,
2013-07-10 06:26:00,69.8,65.8,30.40,ESE,113,0.0,0.0,87,0.00,,,0.00,WUHU216TE923,2013-07-10 10:26:00,
2013-07-10 06:31:00,69.6,65.6,30.34,ESE,113,0.0,0.0,87,0.00,,,0.00,WUHU216TE923,2013-07-10 10:31:00,
2013-07-10 06:36:00,69.8,65.8,30.34,ESE,113,0.0,0.0,87,0.00,,,0.00,WUHU216TE923,2013-07-10 10:36:00,
2013-07-10 06:41:00,69.8,65.8,30.34,ESE,113,0.0,0.0,87,0.00,,,0.00,WUHU216TE923,2013-07-10 10:41:00,
2013-07-10 06:46:00,69.6,65.6,30.34,ENE,68,0.0,0.0,87,0.00,,,0.00,WUHU216TE923,2013-07-10 10:46:00,
2013-07-10 06:51:00,69.6,65.6,30.35,ENE,68,0.0,0.0,87,0.00,,,0.00,WUHU216TE923,2013-07-10 10:51:00,
2013-07-10 06:56:00,69.6,65.6,30.35,ENE,68,0.0,0.0,87,0.00,,,0.00,WUHU216TE923,2013-07-10 10:56:00,
2013-07-10 07:01:00,69.8,65.8,30.35,ENE,68,0.0,0.0,87,0.00,,,0.00,WUHU216TE923,2013-07-10 11:01:00,
2013-07-10 07:06:00,69.8,65.8,30.35,ENE,68,0.0,0.0,87,0.00,,,0.00,WUHU216TE923,2013-07-10 11:06:00,
2013-07-10 07:11:00,69.8,65.8,30.30,ENE,68,0.0,0.0,87,0.00,,,0.00,WUHU216TE923,2013-07-10 11:11:00,
2013-07-10 07:16:00,69.8,65.8,30.30,ENE,68,0.0,0.0,87,0.00,,,0.00,WUHU216TE923,2013-07-10 11:16:00,
2013-07-10 07:21:00,69.8,65.8,30.30,ENE,68,0.0,0.0,87,0.00,,,0.00,WUHU216TE923,2013-07-10 11:21:00,
2013-07-10 07:26:00,70.0,66.0,30.30,ENE,68,0.0,0.0,87,0.00,,,0.00,WUHU216TE923,2013-07-10 11:26:00,
2013-07-10 07:31:00,69.8,65.8,30.29,ENE,68,0.0,0.0,87,0.00,,,0.00,WUHU216TE923,2013-07-10 11:31:00,
2013-07-10 07:36:00,70.0,66.0,30.29,ENE,68,0.0,0.0,87,0.00,,,0.00,WUHU216TE923,2013-07-10 11:36:00,
2013-07-10 07:41:00,70.2,66.2,30.29,ENE,68,0.0,0.0,87,0.00,,,0.00,WUHU216TE923,2013-07-10 11:41:00,
2013-07-10 07:46:00,70.2,66.2,30.29,ESE,113,0.0,0.0,87,0.00,,,0.00,WUHU216TE923,2013-07-10 11:46:00,
2013-07-10 07:51:00,70.2,66.2,30.29,ESE,113,0.0,0.0,87,0.00,,,0.00,WUHU216TE923,2013-07-10 11:51:00,
2013-07-10 07:56:00,70.2,66.2,30.29,ESE,113,0.0,0.0,87,0.00,,,0.00,WUHU216TE923,2013-07-10 11:56:00,
2013-07-10 08:01:00,70.2,66.2,30.29,ESE,113,0.0,0.0,87,0.00,,,0.00,WUHU216TE923,2013-07-10 12:01:00,
2013-07-10 08:06:00,70.2,66.2,30.29,ESE,113,0.0,0.0,87,0.00,,,0.00,WUHU216TE923,2013-07-10 12:06:00,
2013-07-10 08:11:00,70.2,66.2,30.30,ENE,68,0.0,0.0,87,0.00,,,0.00,WUHU216TE923,2013-07-10 12:11:00,
2013-07-10 08:16:00,70.3,66.3,30.30,ENE,68,0.0,0.0,87,0.00,,,0.00,WUHU216TE923,2013-07-10 12:16:00,
2013-07-10 08:21:00,70.3,66.3,30.30,ENE,68,0.0,0.0,87,0.00,,,0.00,WUHU216TE923,2013-07-10 12:21:00,
2013-07-10 08:26:00,70.3,66.6,30.30,ENE,68,0.0,0.0,88,0.00,,,0.00,WUHU216TE923,2013-07-10 12:26:00,
2013-07-10 08:31:00,70.3,66.3,30.28,ENE,68,0.0,0.0,87,0.00,,,0.00,WUHU216TE923,2013-07-10 12:31:00,
2013-07-10 08:36:00,70.5,66.8,30.28,ENE,68,0.0,0.0,88,0.00,,,0.00,WUHU216TE923,2013-07-10 12:36:00,
2013-07-10 08:41:00,70.7,67.0,30.28,ENE,68,0.0,0.0,88,0.00,,,0.00,WUHU216TE923,2013-07-10 12:41:00,
2013-07-10 08:46:00,70.9,66.8,30.28,ENE,68,0.0,0.0,87,0.00,,,0.00,WUHU216TE923,2013-07-10 12:46:00,
2013-07-10 08:51:00,71.1,67.0,30.25,ENE,68,0.0,0.0,87,0.00,,,0.00,WUHU216TE923,2013-07-10 12:51:00,
2013-07-10 08:56:00,71.1,67.0,30.25,ESE,113,0.0,0.0,87,0.00,,,0.00,WUHU216TE923,2013-07-10 12:56:00,
2013-07-10 09:01:00,71.2,67.5,30.25,ENE,68,0.0,0.0,88,0.00,,,0.00,WUHU216TE923,2013-07-10 13:01:00,
2013-07-10 09:06:00,71.6,67.5,30.25,ENE,68,0.0,0.0,87,0.00,,,0.00,WUHU216TE923,2013-07-10 13:06:00,
2013-07-10 09:11:00,71.6,67.5,30.25,ENE,68,0.0,0.0,87,0.00,,,0.00,WUHU216TE923,2013-07-10 13:11:00,
2013-07-10 09:16:00,71.8,67.7,30.25,ENE,68,0.0,0.0,87,0.00,,,0.00,WUHU216TE923,2013-07-10 13:16:00,
2013-07-10 09:21:00,72.0,67.9,30.25,ENE,68,0.0,0.0,87,0.00,,,0.00,WUHU216TE923,2013-07-10 13:21:00,
2013-07-10 09:26:00,72.1,68.0,30.25,SE,135,0.0,0.0,87,0.00,,,0.00,WUHU216TE923,2013-07-10 13:26:00,
2013-07-10 09:31:00,72.3,68.2,30.25,East,90,0.0,0.0,87,0.00,,,0.00,WUHU216TE923,2013-07-10 13:31:00,
2013-07-10 09:36:00,72.5,68.4,30.25,ENE,68,0.0,0.0,87,0.00,,,0.00,WUHU216TE923,2013-07-10 13:36:00,
2013-07-10 09:41:00,72.9,68.8,30.25,East,90,0.0,0.0,87,0.00,,,0.00,WUHU216TE923,2013-07-10 13:41:00,
2013-07-10 09:46:00,73.2,69.1,30.25,NE,45,0.0,0.0,87,0.00,,,0.00,WUHU216TE923,2013-07-10 13:46:00,
2013-07-10 09:51:00,73.2,69.1,30.25,NE,45,0.0,0.0,87,0.00,,,0.00,WUHU216TE923,2013-07-10 13:51:00,
2013-07-10 09:56:00,73.6,69.2,30.25,ENE,68,0.0,0.0,86,0.00,,,0.00,WUHU216TE923,2013-07-10 13:56:00,
2013-07-10 10:01:00,73.6,69.2,30.25,ENE,68,0.0,0.0,86,0.00,,,0.00,WUHU216TE923,2013-07-10 14:01:00,
2013-07-10 10:06:00,73.9,69.5,30.25,ENE,68,0.0,0.0,86,0.00,,,0.00,WUHU216TE923,2013-07-10 14:06:00,
2013-07-10 10:11:00,73.9,69.5,30.25,ENE,68,0.0,0.0,86,0.00,,,0.00,WUHU216TE923,2013-07-10 14:11:00,
2013-07-10 10:16:00,75.2,70.1,30.25,ENE,68,0.0,0.0,84,0.00,,,0.00,WUHU216TE923,2013-07-10 14:16:00,
2013-07-10 10:21:00,75.2,70.1,30.25,ENE,68,0.0,0.0,84,0.00,,,0.00,WUHU216TE923,2013-07-10 14:21:00,
2013-07-10 10:26:00,76.5,70.3,30.27,NNE,23,0.0,0.0,81,0.00,,,0.00,WUHU216TE923,2013-07-10 14:26:00,
2013-07-10 10:31:00,76.5,70.3,30.27,NNE,23,0.0,0.0,81,0.00,,,0.00,WUHU216TE923,2013-07-10 14:31:00,
2013-07-10 10:36:00,77.4,70.5,30.27,ENE,68,0.4,1.1,79,0.00,,,0.00,WUHU216TE923,2013-07-10 14:36:00,
2013-07-10 10:41:00,77.4,70.5,30.27,ENE,68,0.4,1.1,79,0.00,,,0.00,WUHU216TE923,2013-07-10 14:41:00,
2013-07-10 10:46:00,78.1,70.1,30.27,ENE,68,0.6,1.3,76,0.00,,,0.00,WUHU216TE923,2013-07-10 14:46:00,
2013-07-10 10:51:00,78.1,70.1,30.27,ENE,68,0.6,1.3,76,0.00,,,0.00,WUHU216TE923,2013-07-10 14:51:00,
2013-07-10 10:56:00,78.3,69.5,30.27,SE,135,0.4,1.2,74,0.00,,,0.00,WUHU216TE923,2013-07-10 14:56:00,
2013-07-10 11:01:00,78.3,69.5,30.27,SE,135,0.4,1.2,74,0.00,,,0.00,WUHU216TE923,2013-07-10 15:01:00,
2013-07-10 11:06:00,79.3,69.3,30.27,SW,225,0.9,1.2,71,0.00,,,0.00,WUHU216TE923,2013-07-10 15:06:00,
2013-07-10 11:11:00,79.3,69.3,30.27,SW,225,0.9,1.2,71,0.00,,,0.00,WUHU216TE923,2013-07-10 15:11:00,
2013-07-10 11:16:00,79.2,68.4,30.27,SE,135,0.7,0.9,69,0.00,,,0.00,WUHU216TE923,2013-07-10 15:16:00,
2013-07-10 11:21:00,79.9,69.0,30.27,ENE,68,0.2,0.7,69,0.00,,,0.00,WUHU216TE923,2013-07-10 15:21:00,
2013-07-10 11:26:00,80.4,69.1,30.27,ENE,68,0.5,0.5,68,0.00,,,0.00,WUHU216TE923,2013-07-10 15:26:00,
2013-07-10 11:31:00,80.6,68.4,30.33,NNE,23,0.4,0.5,66,0.00,,,0.00,WUHU216TE923,2013-07-10 15:31:00,
2013-07-10 11:36:00,81.5,68.9,30.33,ENE,68,0.0,0.4,65,0.00,,,0.00,WUHU216TE923,2013-07-10 15:36:00,
2013-07-10 11:41:00,81.5,68.9,30.33,ENE,68,0.0,0.1,65,0.00,,,0.00,WUHU216TE923,2013-07-10 15:41:00,
2013-07-10 11:46:00,82.4,68.8,30.31,NE,45,0.0,0.0,63,0.00,,,0.00,WUHU216TE923,2013-07-10 15:46:00,
2013-07-10 11:51:00,82.4,68.8,30.31,NE,45,0.0,0.0,63,0.00,,,0.00,WUHU216TE923,2013-07-10 15:51:00,
2013-07-10 11:56:00,83.3,68.2,30.31,ENE,68,0.3,0.3,60,0.00,,,0.00,WUHU216TE923,2013-07-10 15:56:00,
2013-07-10 12:01:00,83.3,68.2,30.31,ENE,68,0.3,0.3,60,0.00,,,0.00,WUHU216TE923,2013-07-10 16:01:00,
2013-07-10 12:06:00,84.0,66.8,30.31,ENE,68,0.5,2.2,56,0.00,,,0.00,WUHU216TE923,2013-07-10 16:06:00,
2013-07-10 12:11:00,84.0,66.8,30.31,ENE,68,0.5,2.2,56,0.00,,,0.00,WUHU216TE923,2013-07-10 16:11:00,
2013-07-10 12:16:00,84.4,66.1,30.31,NW,315,0.8,1.4,54,0.00,,,0.00,WUHU216TE923,2013-07-10 16:16:00,
2013-07-10 12:21:00,84.4,66.1,30.31,NW,315,0.8,1.4,54,0.00,,,0.00,WUHU216TE923,2013-07-10 16:21:00,
2013-07-10 12:26:00,84.7,64.7,30.31,WNW,293,0.3,0.3,51,0.00,,,0.00,WUHU216TE923,2013-07-10 16:26:00,
2013-07-10 12:31:00,84.2,64.8,30.30,SW,225,0.0,0.3,52,0.00,,,0.00,WUHU216TE923,2013-07-10 16:31:00,
2013-07-10 12:36:00,82.2,64.6,30.30,WSW,248,0.0,0.0,55,0.00,,,0.00,WUHU216TE923,2013-07-10 16:36:00,
2013-07-10 12:41:00,82.2,64.6,30.30,WSW,248,0.0,0.0,55,0.00,,,0.00,WUHU216TE923,2013-07-10 16:41:00,
2013-07-10 12:46:00,80.1,64.2,30.30,WSW,248,0.7,1.8,58,0.00,,,0.00,WUHU216TE923,2013-07-10 16:46:00,
2013-07-10 12:51:00,80.1,64.2,30.30,WSW,248,0.7,1.8,58,0.00,,,0.00,WUHU216TE923,2013-07-10 16:51:00,
2013-07-10 12:56:00,75.7,62.9,30.30,West,270,1.9,2.3,64,0.00,,,0.00,WUHU216TE923,2013-07-10 16:56:00,
2013-07-10 13:01:00,75.7,62.9,30.30,West,270,1.9,2.3,64,0.00,,,0.00,WUHU216TE923,2013-07-10 17:01:00,
2013-07-10 13:06:00,75.2,63.3,30.26,WSW,248,0.6,0.6,66,0.22,,,0.22,WUHU216TE923,2013-07-10 17:06:00,
2013-07-10 13:11:00,75.2,63.3,30.26,WSW,248,0.6,0.6,66,0.22,,,0.22,WUHU216TE923,2013-07-10 17:11:00,
2013-07-10 13:16:00,75.2,64.1,30.26,WSW,248,0.0,0.0,68,0.42,,,0.42,WUHU216TE923,2013-07-10 17:16:00,
2013-07-10 13:21:00,75.2,64.1,30.26,WSW,248,0.0,0.0,68,0.42,,,0.42,WUHU216TE923,2013-07-10 17:21:00,
2013-07-10 13:26:00,75.7,65.0,30.25,WSW,248,0.0,0.0,69,0.42,,,0.42,WUHU216TE923,2013-07-10 17:26:00,
2013-07-10 13:31:00,75.7,65.0,30.25,WSW,248,0.0,0.0,69,0.42,,,0.42,WUHU216TE923,2013-07-10 17:31:00,
2013-07-10 13:36:00,77.2,67.3,30.25,West,270,0.0,0.0,71,0.42,,,0.42,WUHU216TE923,2013-07-10 17:36:00,
2013-07-10 13:41:00,77.2,67.3,30.25,West,270,0.0,0.0,71,0.42,,,0.42,WUHU216TE923,2013-07-10 17:41:00,
2013-07-10 13:46:00,78.1,68.5,30.25,West,270,0.0,0.0,72,0.42,,,0.42,WUHU216TE923,2013-07-10 17:46:00,
2013-07-10 13:51:00,79.2,69.2,30.24,West,270,0.0,0.0,71,0.42,,,0.42,WUHU216TE923,2013-07-10 17:51:00,
2013-07-10 13:56:00,79.9,70.3,30.24,West,270,0.0,0.0,72,0.42,,,0.42,WUHU216TE923,2013-07-10 17:56:00,
2013-07-10 14:01:00,80.2,69.8,30.24,SE,135,0.0,0.0,70,0.20,,,0.42,WUHU216TE923,2013-07-10 18:01:00,
2013-07-10 14:06:00,80.6,70.1,30.24,WSW,248,0.1,0.1,70,0.00,,,0.42,WUHU216TE923,2013-07-10 18:06:00,
2013-07-10 14:11:00,81.0,69.3,30.24,NE,45,0.1,0.1,67,0.00,,,0.42,WUHU216TE923,2013-07-10 18:11:00,
2013-07-10 14:16:00,81.1,68.5,30.24,NE,45,0.1,0.1,65,0.00,,,0.42,WUHU216TE923,2013-07-10 18:16:00,
2013-07-10 14:21:00,81.3,67.3,30.24,South,180,0.2,0.2,62,0.00,,,0.42,WUHU216TE923,2013-07-10 18:21:00,
2013-07-10 14:26:00,81.1,67.6,30.24,SW,225,0.1,0.2,63,0.00,,,0.42,WUHU216TE923,2013-07-10 18:26:00,
2013-07-10 14:31:00,81.0,68.4,30.24,ENE,68,0.0,0.1,65,0.00,,,0.42,WUHU216TE923,2013-07-10 18:31:00,
2013-07-10 14:36:00,81.1,68.5,30.24,SW,225,0.0,0.0,65,0.00,,,0.42,WUHU216TE923,2013-07-10 18:36:00,
2013-07-10 14:41:00,81.7,68.6,30.24,NW,315,0.0,0.0,64,0.00,,,0.42,WUHU216TE923,2013-07-10 18:41:00,
2013-07-10 14:46:00,81.5,68.4,30.24,WSW,248,0.0,0.0,64,0.00,,,0.42,WUHU216TE923,2013-07-10 18:46:00,
2013-07-10 14:51:00,81.9,68.3,30.24,SW,225,0.1,0.1,63,0.00,,,0.42,WUHU216TE923,2013-07-10 18:51:00,
2013-07-10 14:56:00,82.2,68.1,30.24,ENE,68,0.0,0.1,62,0.00,,,0.42,WUHU216TE923,2013-07-10 18:56:00,
2013-07-10 14:57:00,82.0,67.9,30.13,WSW,248,0.2,0.2,62,0.00,,,0.42,WUHU216TE923,2013-07-10 18:57:00,
2013-07-10 15:02:00,82.0,67.9,30.13,WSW,248,0.2,0.2,62,0.00,,,0.42,WUHU216TE923,2013-07-10 19:02:00,
2013-07-10 15:07:00,82.0,68.4,30.11,WSW,248,0.1,0.2,63,0.00,,,0.42,WUHU216TE923,2013-07-10 19:07:00,
2013-07-10 15:12:00,82.0,68.4,30.11,WSW,248,0.1,0.2,63,0.00,,,0.42,WUHU216TE923,2013-07-10 19:12:00,
2013-07-10 15:17:00,81.5,65.5,30.11,WSW,248,0.2,0.2,58,0.00,,,0.42,WUHU216TE923,2013-07-10 19:17:00,
2013-07-10 15:22:00,81.5,65.5,30.11,WSW,248,0.2,0.2,58,0.00,,,0.42,WUHU216TE923,2013-07-10 19:22:00,
2013-07-10 15:27:00,81.3,65.3,30.11,SW,225,0.1,0.1,58,0.00,,,0.42,WUHU216TE923,2013-07-10 19:27:00,
2013-07-10 15:32:00,81.3,65.3,30.11,SW,225,0.1,0.1,58,0.00,,,0.42,WUHU216TE923,2013-07-10 19:32:00,
2013-07-10 15:37:00,79.7,64.3,30.11,SW,225,0.0,0.1,59,0.00,,,0.42,WUHU216TE923,2013-07-10 19:37:00,
2013-07-10 15:42:00,79.7,64.3,30.11,SW,225,0.0,0.1,59,0.00,,,0.42,WUHU216TE923,2013-07-10 19:42:00,
2013-07-10 15:47:00,78.4,65.4,30.10,WSW,248,0.6,2.1,64,0.00,,,0.42,WUHU216TE923,2013-07-10 19:47:00,
2013-07-10 15:52:00,78.4,65.4,30.10,WSW,248,0.6,2.1,64,0.00,,,0.42,WUHU216TE923,2013-07-10 19:52:00,
2013-07-10 15:57:00,78.1,66.0,30.10,WNW,293,0.3,1.4,66,0.00,,,0.42,WUHU216TE923,2013-07-10 19:57:00,
2013-07-10 16:02:00,78.1,66.0,30.10,WNW,293,0.3,1.4,66,0.00,,,0.42,WUHU216TE923,2013-07-10 20:02:00,
2013-07-10 16:07:00,78.6,67.0,30.08,WSW,248,0.4,1.6,67,0.00,,,0.42,WUHU216TE923,2013-07-10 20:07:00,
2013-07-10 16:12:00,78.6,67.0,30.08,WSW,248,0.4,1.6,67,0.00,,,0.42,WUHU216TE923,2013-07-10 20:12:00,
2013-07-10 16:17:00,78.3,67.1,30.08,NW,315,0.9,1.2,68,0.00,,,0.42,WUHU216TE923,2013-07-10 20:17:00,
2013-07-10 16:22:00,78.3,67.1,30.08,NW,315,0.9,1.2,68,0.00,,,0.42,WUHU216TE923,2013-07-10 20:22:00,
2013-07-10 16:27:00,77.5,66.3,30.08,WSW,248,0.2,0.6,68,0.00,,,0.42,WUHU216TE923,2013-07-10 20:27:00,
2013-07-10 16:32:00,77.5,66.3,30.08,WSW,248,0.2,0.6,68,0.00,,,0.42,WUHU216TE923,2013-07-10 20:32:00,
2013-07-10 16:37:00,76.1,64.6,30.08,ENE,68,0.7,2.3,67,0.00,,,0.42,WUHU216TE923,2013-07-10 20:37:00,
2013-07-10 16:42:00,76.1,64.6,30.08,ENE,68,0.7,2.3,67,0.00,,,0.42,WUHU216TE923,2013-07-10 20:42:00,
2013-07-10 16:47:00,73.9,63.3,30.11,NNE,23,0.8,1.1,69,0.00,,,0.42,WUHU216TE923,2013-07-10 20:47:00,
2013-07-10 16:52:00,73.9,63.3,30.11,NNE,23,0.8,1.1,69,0.00,,,0.42,WUHU216TE923,2013-07-10 20:52:00,
2013-07-10 16:57:00,72.7,62.9,30.11,SSE,158,0.2,0.6,71,0.17,,,0.59,WUHU216TE923,2013-07-10 20:57:00,
2013-07-10 17:02:00,72.5,63.1,30.11,SSE,158,0.0,0.6,72,0.28,,,0.70,WUHU216TE923,2013-07-10 21:02:00,
2013-07-10 17:07:00,72.5,63.5,30.10,South,180,0.0,0.0,73,0.30,,,0.72,WUHU216TE923,2013-07-10 21:07:00,
2013-07-10 17:12:00,72.5,63.5,30.10,South,180,0.0,0.0,73,0.30,,,0.72,WUHU216TE923,2013-07-10 21:12:00,
2013-07-10 17:17:00,72.3,63.7,30.10,South,180,0.1,0.1,74,0.30,,,0.72,WUHU216TE923,2013-07-10 21:17:00,
2013-07-10 17:22:00,72.3,63.7,30.10,South,180,0.1,1.0,74,0.30,,,0.72,WUHU216TE923,2013-07-10 21:22:00,
2013-07-10 17:27:00,72.5,64.3,30.10,ENE,68,0.0,1.0,75,0.30,,,0.72,WUHU216TE923,2013-07-10 21:27:00,
2013-07-10 17:32:00,72.5,64.3,30.10,ENE,68,0.0,0.0,75,0.30,,,0.72,WUHU216TE923,2013-07-10 21:32:00,
2013-07-10 17:37:00,72.5,64.6,30.10,SSE,158,0.0,0.0,76,0.30,,,0.72,WUHU216TE923,2013-07-10 21:37:00,
2013-07-10 17:42:00,72.5,64.6,30.10,ENE,68,0.0,0.0,76,0.30,,,0.72,WUHU216TE923,2013-07-10 21:42:00,
2013-07-10 17:47:00,72.5,65.0,30.05,East,90,0.0,0.0,77,0.24,,,0.72,WUHU216TE923,2013-07-10 21:47:00,
2013-07-10 17:52:00,72.5,65.0,30.05,ENE,68,0.0,0.0,77,0.13,,,0.72,WUHU216TE923,2013-07-10 21:52:00,
2013-07-10 17:57:00,72.7,65.6,30.05,ENE,68,0.0,0.0,78,0.02,,,0.72,WUHU216TE923,2013-07-10 21:57:00,
2013-07-10 18:02:00,72.5,65.4,30.05,ESE,113,0.0,0.0,78,0.00,,,0.72,WUHU216TE923,2013-07-10 22:02:00,
2013-07-10 18:07:00,72.7,65.6,30.06,WSW,248,0.0,0.0,78,0.00,,,0.72,WUHU216TE923,2013-07-10 22:07:00,
2013-07-10 18:12:00,72.7,65.6,30.06,SW,225,0.0,0.0,78,0.00,,,0.72,WUHU216TE923,2013-07-10 22:12:00,
2013-07-10 18:17:00,72.7,65.6,30.06,ESE,113,0.0,0.0,78,0.00,,,0.72,WUHU216TE923,2013-07-10 22:17:00,
2013-07-10 18:22:00,72.7,65.9,30.06,East,90,0.0,0.0,79,0.00,,,0.72,WUHU216TE923,2013-07-10 22:22:00,
2013-07-10 18:27:00,72.9,66.1,30.06,East,90,0.0,0.0,79,0.00,,,0.72,WUHU216TE923,2013-07-10 22:27:00,
2013-07-10 18:32:00,72.9,66.1,30.06,East,90,0.0,0.0,79,0.00,,,0.72,WUHU216TE923,2013-07-10 22:32:00,
2013-07-10 18:37:00,73.0,66.2,30.06,East,90,0.0,0.0,79,0.00,,,0.72,WUHU216TE923,2013-07-10 22:37:00,
2013-07-10 18:42:00,73.0,66.6,30.06,East,90,0.0,0.0,80,0.00,,,0.72,WUHU216TE923,2013-07-10 22:42:00,
2013-07-10 18:47:00,73.0,66.9,30.09,SE,135,0.0,0.0,81,0.00,,,0.72,WUHU216TE923,2013-07-10 22:47:00,
2013-07-10 18:52:00,73.0,66.9,30.09,ESE,113,0.0,0.0,81,0.00,,,0.72,WUHU216TE923,2013-07-10 22:52:00,
2013-07-10 18:57:00,72.9,66.8,30.09,SE,135,0.0,0.0,81,0.00,,,0.72,WUHU216TE923,2013-07-10 22:57:00,
2013-07-10 19:02:00,72.9,66.8,30.09,SE,135,0.0,0.0,81,0.00,,,0.72,WUHU216TE923,2013-07-10 23:02:00,
2013-07-10 19:07:00,73.0,66.9,30.07,SE,135,0.0,0.0,81,0.00,,,0.72,WUHU216TE923,2013-07-10 23:07:00,
2013-07-10 19:12:00,73.0,66.9,30.07,SE,135,0.0,0.0,81,0.00,,,0.72,WUHU216TE923,2013-07-10 23:12:00,
2013-07-10 19:17:00,73.0,67.2,30.07,SE,135,0.0,0.0,82,0.00,,,0.72,WUHU216TE923,2013-07-10 23:17:00,
2013-07-10 19:22:00,73.0,67.2,30.07,SE,135,0.0,0.0,82,0.00,,,0.72,WUHU216TE923,2013-07-10 23:22:00,
2013-07-10 19:27:00,73.0,67.2,30.09,ENE,68,0.0,0.0,82,0.00,,,0.72,WUHU216TE923,2013-07-10 23:27:00,
2013-07-10 19:32:00,73.0,67.2,30.09,ESE,113,0.0,0.0,82,0.00,,,0.72,WUHU216TE923,2013-07-10 23:32:00,
2013-07-10 19:37:00,72.9,67.1,30.09,ESE,113,0.0,0.0,82,0.00,,,0.72,WUHU216TE923,2013-07-10 23:37:00,
2013-07-10 19:42:00,72.9,67.1,30.09,ESE,113,0.0,0.0,82,0.00,,,0.72,WUHU216TE923,2013-07-10 23:42:00,
2013-07-10 19:47:00,72.9,67.1,30.09,ESE,113,0.0,0.0,82,0.00,,,0.72,WUHU216TE923,2013-07-10 23:47:00,
2013-07-10 19:52:00,72.9,67.1,30.09,ESE,113,0.0,0.0,82,0.00,,,0.72,WUHU216TE923,2013-07-10 23:52:00,
2013-07-10 19:57:00,72.9,67.1,30.09,ESE,113,0.0,0.0,82,0.00,,,0.72,WUHU216TE923,2013-07-10 23:57:00,
2013-07-10 20:02:00,72.9,67.1,30.09,ESE,113,0.0,0.0,82,0.00,,,0.72,WUHU216TE923,2013-07-11 00:02:00,
2013-07-10 20:07:00,72.9,67.5,30.07,ESE,113,0.0,0.0,83,0.00,,,0.72,WUHU216TE923,2013-07-11 00:07:00,
2013-07-10 20:12:00,72.9,67.5,30.07,ESE,113,0.0,0.0,83,0.00,,,0.72,WUHU216TE923,2013-07-11 00:12:00,
2013-07-10 20:17:00,72.9,67.5,30.07,ESE,113,0.0,0.0,83,0.00,,,0.72,WUHU216TE923,2013-07-11 00:17:00,
2013-07-10 20:22:00,72.9,67.5,30.07,ESE,113,0.0,0.0,83,0.00,,,0.72,WUHU216TE923,2013-07-11 00:22:00,
2013-07-10 20:27:00,72.5,67.1,30.07,ESE,113,0.0,0.0,83,0.00,,,0.72,WUHU216TE923,2013-07-11 00:27:00,
2013-07-10 20:32:00,72.5,67.1,30.07,ESE,113,0.0,0.0,83,0.00,,,0.72,WUHU216TE923,2013-07-11 00:32:00,
2013-07-10 20:37:00,72.5,67.1,30.07,ESE,113,0.0,0.0,83,0.00,,,0.72,WUHU216TE923,2013-07-11 00:37:00,
2013-07-10 20:42:00,72.5,67.1,30.07,ESE,113,0.0,0.0,83,0.00,,,0.72,WUHU216TE923,2013-07-11 00:42:00,
2013-07-10 20:47:00,72.5,67.1,30.09,South,180,0.0,0.0,83,0.00,,,0.72,WUHU216TE923,2013-07-11 00:47:00,
2013-07-10 20:52:00,72.5,67.1,30.09,South,180,0.0,0.0,83,0.00,,,0.72,WUHU216TE923,2013-07-11 00:52:00,
2013-07-10 20:57:00,72.3,67.2,30.09,ESE,113,0.0,0.0,84,0.00,,,0.72,WUHU216TE923,2013-07-11 00:57:00,
2013-07-10 21:02:00,72.3,67.2,30.09,ESE,113,0.0,0.0,84,0.00,,,0.72,WUHU216TE923,2013-07-11 01:02:00,
2013-07-10 21:07:00,72.1,67.0,30.12,ESE,113,0.0,0.0,84,0.00,,,0.72,WUHU216TE923,2013-07-11 01:07:00,
2013-07-10 21:12:00,72.1,67.0,30.12,ESE,113,0.0,0.0,84,0.00,,,0.72,WUHU216TE923,2013-07-11 01:12:00,
2013-07-10 21:17:00,72.1,67.0,30.12,ESE,113,0.0,0.0,84,0.00,,,0.72,WUHU216TE923,2013-07-11 01:17:00,
2013-07-10 21:22:00,72.1,67.0,30.12,ESE,113,0.0,0.0,84,0.00,,,0.72,WUHU216TE923,2013-07-11 01:22:00,
2013-07-10 21:27:00,72.0,66.9,30.11,ESE,113,0.0,0.0,84,0.00,,,0.72,WUHU216TE923,2013-07-11 01:27:00,
2013-07-10 21:32:00,72.0,66.9,30.11,ESE,113,0.0,0.0,84,0.00,,,0.72,WUHU216TE923,2013-07-11 01:32:00,
2013-07-10 21:37:00,71.8,66.7,30.11,West,270,0.0,0.0,84,0.00,,,0.72,WUHU216TE923,2013-07-11 01:37:00,
2013-07-10 21:42:00,71.8,66.7,30.11,West,270,0.0,0.0,84,0.00,,,0.72,WUHU216TE923,2013-07-11 01:42:00,
2013-07-10 21:47:00,72.0,66.9,30.16,ENE,68,0.0,0.0,84,0.00,,,0.72,WUHU216TE923,2013-07-11 01:47:00,
2013-07-10 21:52:00,72.0,66.9,30.16,ENE,68,0.0,0.0,84,0.00,,,0.72,WUHU216TE923,2013-07-11 01:52:00,
2013-07-10 21:57:00,71.8,66.7,30.16,ENE,68,0.0,0.0,84,0.00,,,0.72,WUHU216TE923,2013-07-11 01:57:00,
2013-07-10 22:02:00,71.8,66.7,30.16,ENE,68,0.0,0.0,84,0.00,,,0.72,WUHU216TE923,2013-07-11 02:02:00,
2013-07-10 22:07:00,71.8,67.1,30.14,ENE,68,0.0,0.0,85,0.00,,,0.72,WUHU216TE923,2013-07-11 02:07:00,
2013-07-10 22:12:00,71.8,67.1,30.14,ENE,68,0.0,0.0,85,0.00,,,0.72,WUHU216TE923,2013-07-11 02:12:00,
2013-07-10 22:17:00,71.6,66.9,30.14,SSW,203,0.0,0.0,85,0.00,,,0.72,WUHU216TE923,2013-07-11 02:17:00,
2013-07-10 22:22:00,71.6,66.9,30.14,SSW,203,0.0,0.0,85,0.00,,,0.72,WUHU216TE923,2013-07-11 02:22:00,
2013-07-10 22:27:00,71.6,66.9,30.19,East,90,0.0,0.0,85,0.00,,,0.72,WUHU216TE923,2013-07-11 02:27:00,
2013-07-10 22:32:00,71.6,66.9,30.19,East,90,0.0,0.0,85,0.00,,,0.72,WUHU216TE923,2013-07-11 02:32:00,
2013-07-10 22:37:00,71.6,66.9,30.19,East,90,0.0,0.0,85,0.00,,,0.72,WUHU216TE923,2013-07-11 02:37:00,
2013-07-10 22:42:00,71.6,66.9,30.19,East,90,0.0,0.0,85,0.00,,,0.72,WUHU216TE923,2013-07-11 02:42:00,
2013-07-10 22:47:00,71.4,67.0,30.19,East,90,0.0,0.0,86,0.00,,,0.72,WUHU216TE923,2013-07-11 02:47:00,
2013-07-10 22:52:00,71.4,67.0,30.19,East,90,0.0,0.0,86,0.00,,,0.72,WUHU216TE923,2013-07-11 02:52:00,
2013-07-10 22:57:00,71.4,67.0,30.19,East,90,0.0,0.0,86,0.00,,,0.72,WUHU216TE923,2013-07-11 02:57:00,
2013-07-10 23:02:00,71.4,67.0,30.19,East,90,0.0,0.0,86,0.00,,,0.72,WUHU216TE923,2013-07-11 03:02:00,
2013-07-10 23:07:00,71.4,67.0,30.14,East,90,0.0,0.0,86,0.00,,,0.72,WUHU216TE923,2013-07-11 03:07:00,
2013-07-10 23:12:00,71.4,67.0,30.14,East,90,0.0,0.0,86,0.00,,,0.72,WUHU216TE923,2013-07-11 03:12:00,
2013-07-10 23:17:00,71.4,67.0,30.14,East,90,0.0,0.0,86,0.00,,,0.72,WUHU216TE923,2013-07-11 03:17:00,
2013-07-10 23:22:00,71.4,67.0,30.14,East,90,0.0,0.0,86,0.00,,,0.72,WUHU216TE923,2013-07-11 03:22:00,
2013-07-10 23:27:00,71.4,67.0,30.18,East,90,0.0,0.0,86,0.00,,,0.72,WUHU216TE923,2013-07-11 03:27:00,
2013-07-10 23:32:00,71.4,67.0,30.18,East,90,0.0,0.0,86,0.00,,,0.72,WUHU216TE923,2013-07-11 03:32:00,
2013-07-10 23:37:00,71.4,67.0,30.18,East,90,0.0,0.0,86,0.00,,,0.72,WUHU216TE923,2013-07-11 03:37:00,
2013-07-10 23:42:00,71.4,67.0,30.18,East,90,0.0,0.0,86,0.00,,,0.72,WUHU216TE923,2013-07-11 03:42:00,
2013-07-10 23:47:00,71.4,67.0,30.20,East,90,0.0,0.0,86,0.00,,,0.72,WUHU216TE923,2013-07-11 03:47:00,
2013-07-10 23:52:00,71.4,67.0,30.20,East,90,0.0,0.0,86,0.00,,,0.72,WUHU216TE923,2013-07-11 03:52:00,
2013-07-10 23:57:00,71.4,67.0,30.20,ESE,113,0.0,0.0,86,0.00,,,0.72,WUHU216TE923,2013-07-11 03:57:00,